18:42
Airports
History
Links
Donate
Help keep this website running!
PayPal
Bitcoin
This page is community maintained. The information is intended for PC simulator navigation or reference.
Always use approved charts for navigation.
9I8
Barnett Airpark
Barnett Airpark (9I8)
Midland, Ohio, United States (45148)
4
Lat/Lng:39° 20' 0.22" N / 83° 51' 19.74" W
39.333395 / -83.855483
Elevation:1010'ft / 308mMSL
ID / ICAO:9I8
Runways:1
Longest:01-19
Grass 869m / 2,851ft
Nearby Weather17:54 GMT 2017-09-22
Nearby weather at KILN, Wilmington Air Park located 7.4 nautical miles from 9I8
Altimeter: 30.10
Visibility: 10.0 statute miles
Wind: 0 knots (from 000°)
Temp: 31°c / 88°f
Humidity: 52.0%

METAR: KILN 221754Z AUTO 00000KT 10SM CLR 31/20 A3010 RMK AO2 SLP180 T03060200 10306 20178 58013

(Powered by phpweather)
Nearby VORs <50NM
Nearby NDBs
Runway 01 / 19
Dimensions:869 x 36.6m 2851' x 120'ft
Surface:Grass
Runway 01 [A]Runway 19 [B]
Heading:005°TH 185°TH
Lat:
Lng:
39° 19' 46.26"N
83° 51' 21.64"W
39° 20' 14.19"N
83° 51' 17.84"W
User Notes and Comments
39° 20' 0.22" N / 83° 51' 19.74" W
Distance To
Airport ID:
Nearby Airports
(C) Wilmington Air Park 7.4 NM
KILN ( WX ) NNE 27°
4 Double J 9.4 NM
8I8 SSW 213°
4 Frith 10.2 NM
24I W 271°
(U) Clinton Field 11.7 NM
I66 N 357°
4 Hagemeyer 12.6 NM
0OH5 NW 307°
(R) Donner Field 13.8 NM
OH28 E 80°
(R) Antique Acres Airpark 14.6 NM
OH65 WSW 243°
VFR Chart
Flight Planning at SkyVector.com